Terminal Aerodrome Forecast
Issued by NWS Quad Cities IA IL

Home | Current Version | Previous Version | Text Only | Print | Product List | Glossary On
Versions: 1 2 3 4 5 6 7 8 9 10 11 12 13 14 15 16 17 18 19 20 21 22 23 24 25 26 27 28 29 30 31
862
FTUS43 KDVN 232023 AAB
TAFDBQ
TAF AMD
KDBQ 232023Z 2320/2418 09007KT P6SM SCT025 SCT035
     FM232200 17007KT 3SM TSRA BKN040CB
      TEMPO 2322/2401 30030G50KT 3/4SM +TSRA BKN015CB
     FM241000 19009KT 5SM BR BKN250
     FM241400 23010KT P6SM BKN120=

USA.gov is the U.S. government's official web portal to all federal, state and local government web resources and services.